Time;durP1;ratioP1;P1;durP2;ratioP2;P2;SDS_P1;SDS_P2;PMS_P1;PMS_P2;Temp;Humidity;BMP_temperature;BMP_pressure;BME280_temperature;BME280_humidity;BME280_pressure;Samples;Min_cycle;Max_cycle;Signal;HPM_P1;HPM_P2
2022/08/01 00:01:32;;;;;;;2.83;2.63;;;;;;;20.96;74.02;96729.03;5041962;28;20203;-56
2022/08/01 00:03:59;;;;;;;3.33;3.03;;;;;;;20.96;73.83;96727.16;5041681;28;20238;-56
2022/08/01 00:06:25;;;;;;;3.20;3.00;;;;;;;20.89;75.82;96722.81;5041434;28;20269;-56
2022/08/01 00:08:52;;;;;;;3.30;3.10;;;;;;;20.88;73.87;96723.84;5041685;28;20239;-55
2022/08/01 00:11:18;;;;;;;3.28;3.08;;;;;;;20.90;73.11;96721.78;5041675;28;20287;-55
2022/08/01 00:13:45;;;;;;;3.65;3.35;;;;;;;20.85;74.00;96720.53;5041963;28;20302;-55
2022/08/01 00:16:12;;;;;;;3.28;3.08;;;;;;;20.79;75.32;96726.75;5040436;28;20204;-56
2022/08/01 00:18:40;;;;;;;3.50;3.20;;;;;;;20.67;77.34;96722.16;5042539;28;20234;-56
2022/08/01 00:21:06;;;;;;;3.35;3.15;;;;;;;20.57;77.66;96724.41;5040985;28;20238;-56
2022/08/01 00:23:33;;;;;;;4.32;3.42;;;;;;;20.59;77.22;96716.97;5056773;28;20196;-54
2022/08/01 00:26:00;;;;;;;3.40;3.20;;;;;;;20.57;77.68;96717.19;5057517;28;20230;-56
2022/08/01 00:28:27;;;;;;;3.50;3.28;;;;;;;20.50;78.04;96727.09;5058893;28;20259;-56
2022/08/01 00:30:53;;;;;;;3.45;3.20;;;;;;;20.48;77.67;96728.31;5045489;28;20304;-55
2022/08/01 00:33:20;;;;;;;3.70;3.40;;;;;;;20.37;79.78;96732.41;5041344;28;20729;-55
2022/08/01 00:35:48;;;;;;;3.75;3.47;;;;;;;20.35;79.01;96734.47;5041795;28;20633;-54
2022/08/01 00:38:15;;;;;;;3.60;3.30;;;;;;;20.37;78.11;96736.97;5041927;28;20303;-55
2022/08/01 00:40:42;;;;;;;3.90;3.60;;;;;;;20.36;77.97;96730.78;5042127;28;20523;-55
2022/08/01 00:43:10;;;;;;;3.80;3.47;;;;;;;20.33;79.31;96731.19;5041621;28;20211;-55
2022/08/01 00:45:37;;;;;;;3.10;2.90;;;;;;;20.27;80.08;96729.25;5043670;28;20238;-54
2022/08/01 00:48:04;;;;;;;3.25;2.90;;;;;;;20.30;79.44;96726.19;5044934;28;20266;-55
2022/08/01 00:50:31;;;;;;;3.53;3.08;;;;;;;20.32;77.30;96724.97;5044891;28;20196;-55
2022/08/01 00:53:00;;;;;;;3.15;2.92;;;;;;;20.32;77.87;96729.50;5045068;28;20230;-55
2022/08/01 00:55:27;;;;;;;3.00;2.80;;;;;;;20.30;77.68;96726.19;5046341;28;20255;-55
2022/08/01 00:57:55;;;;;;;2.95;2.85;;;;;;;20.26;79.53;96724.94;5044907;28;20299;-56
2022/08/01 01:00:22;;;;;;;4.35;2.75;;;;;;;20.25;78.46;96717.88;5044613;28;20214;-55
2022/08/01 01:02:48;;;;;;;3.08;2.88;;;;;;;20.29;77.55;96730.75;5044626;28;20707;-55
2022/08/01 01:05:15;;;;;;;5.50;2.90;;;;;;;20.29;77.68;96735.28;5045703;28;20241;-55
2022/08/01 01:07:49;;;;;;;2.65;2.55;;;;;;;20.29;77.35;96736.13;5045589;28;20267;-54
2022/08/01 01:10:22;;;;;;;3.33;3.03;;;;;;;20.28;79.39;96739.00;5046088;28;20241;-56
2022/08/01 01:12:53;;;;;;;3.38;2.72;;;;;;;20.28;78.27;96736.31;5045510;28;20199;-55
2022/08/01 01:15:24;;;;;;;2.85;2.60;;;;;;;20.27;78.65;96735.47;5045193;28;20207;-55
2022/08/01 01:17:56;;;;;;;3.58;3.08;;;;;;;20.27;78.49;96740.00;5045391;28;20226;-54
2022/08/01 01:20:29;;;;;;;3.05;2.85;;;;;;;20.27;79.21;96734.63;5044304;28;20210;-54
2022/08/01 01:23:07;;;;;;;3.10;2.90;;;;;;;20.28;79.25;96733.63;5044971;28;20191;-55
2022/08/01 01:25:55;;;;;;;2.80;2.70;;;;;;;20.24;80.64;96737.72;5044294;28;20204;-55
2022/08/01 01:28:30;;;;;;;2.90;2.70;;;;;;;20.20;80.78;96739.13;5043875;28;20215;-55
2022/08/01 01:31:01;;;;;;;3.83;2.50;;;;;;;20.20;81.48;96737.28;5043505;28;20234;-55
2022/08/01 01:33:31;;;;;;;2.90;2.70;;;;;;;20.19;81.26;96730.25;5043488;28;20231;-55
2022/08/01 01:36:00;;;;;;;2.92;2.80;;;;;;;20.18;82.02;96735.84;5044981;28;20208;-54
2022/08/01 01:38:30;;;;;;;2.85;2.65;;;;;;;20.17;81.57;96731.47;5043330;28;20224;-55
2022/08/01 01:40:58;;;;;;;4.25;2.80;;;;;;;20.13;82.32;96727.53;5044185;28;20631;-54
2022/08/01 01:43:25;;;;;;;2.97;2.63;;;;;;;20.06;83.28;96729.38;5044419;28;20724;-55
2022/08/01 01:45:52;;;;;;;5.00;3.08;;;;;;;20.04;83.20;96723.38;5044743;28;20207;-55
2022/08/01 01:48:21;;;;;;;3.97;2.53;;;;;;;20.01;82.75;96734.53;5043632;28;20334;-53
2022/08/01 01:50:49;;;;;;;3.13;2.65;;;;;;;19.92;83.49;96733.84;5043810;28;20207;-55
2022/08/01 01:53:17;;;;;;;3.42;2.90;;;;;;;19.94;83.22;96730.97;5043765;28;20199;-56
2022/08/01 01:55:45;;;;;;;2.92;2.70;;;;;;;19.92;81.82;96724.97;5043853;28;20234;-56
2022/08/01 01:58:14;;;;;;;3.00;2.78;;;;;;;19.94;81.20;96736.34;5043472;28;20223;-55
2022/08/01 02:00:41;;;;;;;2.97;2.78;;;;;;;19.87;81.27;96739.00;5043934;28;20217;-53
2022/08/01 02:03:08;;;;;;;3.00;2.80;;;;;;;19.77;83.53;96739.34;5045360;28;20295;-56
2022/08/01 02:05:38;;;;;;;3.20;2.90;;;;;;;19.76;82.48;96737.72;5044122;28;21112;-56
2022/08/01 02:08:05;;;;;;;2.80;2.60;;;;;;;19.73;83.31;96739.97;5043951;28;20234;-55
2022/08/01 02:10:33;;;;;;;2.90;2.60;;;;;;;19.75;82.00;96736.03;5043580;28;20217;-55
2022/08/01 02:13:03;;;;;;;3.20;2.85;;;;;;;19.76;81.99;96743.06;5044289;28;21449;-55
2022/08/01 02:15:31;;;;;;;3.25;3.00;;;;;;;19.68;82.84;96735.19;5044422;28;20198;-55
2022/08/01 02:17:58;;;;;;;3.05;2.78;;;;;;;19.69;82.32;96738.69;5043822;28;20245;-55
2022/08/01 02:20:26;;;;;;;3.50;2.85;;;;;;;19.69;82.88;96750.25;5044668;28;20204;-55
2022/08/01 02:22:57;;;;;;;3.15;2.88;;;;;;;19.69;81.60;96734.16;5044607;28;20203;-56
2022/08/01 02:25:27;;;;;;;3.10;2.80;;;;;;;19.66;82.07;96734.53;5044795;28;20211;-55
2022/08/01 02:28:00;;;;;;;2.67;2.38;;;;;;;19.63;81.86;96742.13;5048736;28;20269;-55
2022/08/01 02:30:30;;;;;;;3.30;2.92;;;;;;;19.59;82.43;96744.38;5059085;28;20191;-56
2022/08/01 02:33:01;;;;;;;2.97;2.78;;;;;;;19.55;82.98;96745.84;5060795;28;20234;-55
2022/08/01 02:35:30;;;;;;;2.92;2.67;;;;;;;19.53;83.27;96750.53;5060445;28;20180;-55
2022/08/01 02:37:58;;;;;;;3.00;2.80;;;;;;;19.52;83.08;96750.75;5046537;28;20203;-55
2022/08/01 02:40:27;;;;;;;2.95;2.75;;;;;;;19.52;83.24;96751.56;5048132;28;20233;-55
2022/08/01 02:42:56;;;;;;;3.67;3.00;;;;;;;19.49;83.81;96749.28;5045005;28;20290;-58
2022/08/01 02:45:26;;;;;;;3.70;3.40;;;;;;;19.51;84.57;96757.13;5047415;28;20212;-56
2022/08/01 02:47:56;;;;;;;3.10;2.90;;;;;;;19.54;83.02;96754.91;5045694;28;20304;-55
2022/08/01 02:50:25;;;;;;;3.22;2.92;;;;;;;19.54;82.80;96752.22;5044626;28;20265;-55
2022/08/01 02:52:53;;;;;;;3.10;2.90;;;;;;;19.52;83.40;96754.25;5045729;28;20231;-55
2022/08/01 02:55:22;;;;;;;3.30;3.10;;;;;;;19.55;83.72;96747.69;5047557;28;20238;-55
2022/08/01 02:57:50;;;;;;;3.50;3.20;;;;;;;19.50;84.33;96748.25;5056028;28;20227;-55
2022/08/01 03:00:18;;;;;;;4.38;2.90;;;;;;;19.44;85.14;96746.38;5066186;28;20180;-55
2022/08/01 03:02:45;;;;;;;4.93;3.20;;;;;;;19.43;85.75;96750.06;5067999;28;20214;-54
2022/08/01 03:05:13;;;;;;;4.78;3.35;;;;;;;19.47;85.30;96745.97;5074017;28;20199;-55
2022/08/01 03:07:40;;;;;;;3.20;2.92;;;;;;;19.41;87.06;96748.59;5074614;28;20254;-55
2022/08/01 03:10:08;;;;;;;3.35;3.10;;;;;;;19.48;85.24;96747.66;5068310;28;20192;-55
2022/08/01 03:12:38;;;;;;;3.80;3.40;;;;;;;19.43;84.99;96742.03;5063937;28;20234;-55
2022/08/01 03:15:06;;;;;;;2.92;2.70;;;;;;;19.41;85.91;96745.91;5065170;28;20211;-54
2022/08/01 03:17:33;;;;;;;3.72;3.30;;;;;;;19.38;86.35;96747.09;5061656;28;20187;-55
2022/08/01 03:20:03;;;;;;;6.35;3.50;;;;;;;19.34;87.23;96746.66;5069402;28;20179;-55
2022/08/01 03:22:31;;;;;;;3.50;3.20;;;;;;;19.34;87.56;96748.53;5068498;28;20191;-56
2022/08/01 03:25:00;;;;;;;3.38;3.17;;;;;;;19.34;87.72;96745.84;5043750;28;20290;-56
2022/08/01 03:27:26;;;;;;;2.83;2.63;;;;;;;19.31;88.56;96746.22;5045395;28;20227;-55
2022/08/01 03:29:56;;;;;;;3.60;3.28;;;;;;;19.25;87.99;96747.00;5042907;28;20622;-55
2022/08/01 03:32:24;;;;;;;3.40;3.10;;;;;;;19.33;86.65;96752.22;5044291;28;20241;-55
2022/08/01 03:34:50;;;;;;;3.15;2.95;;;;;;;19.27;87.08;96742.28;5042559;28;20722;-55
2022/08/01 03:37:24;;;;;;;3.20;3.00;;;;;;;19.19;88.27;96755.84;5042144;28;20286;-55
2022/08/01 03:39:59;;;;;;;3.10;2.80;;;;;;;19.14;88.78;96747.53;5042580;28;20207;-54
2022/08/01 03:42:29;;;;;;;3.33;3.10;;;;;;;19.11;90.12;96754.13;5042787;28;20203;-55
2022/08/01 03:45:00;;;;;;;3.35;3.15;;;;;;;19.10;89.67;96748.94;5042258;28;20207;-55
2022/08/01 03:47:30;;;;;;;3.63;3.33;;;;;;;19.05;89.98;96751.38;5041509;28;20728;-56
2022/08/01 03:49:58;;;;;;;3.45;3.15;;;;;;;19.00;89.77;96751.13;5042656;28;20627;-55
2022/08/01 03:52:25;;;;;;;3.42;3.22;;;;;;;18.99;89.66;96752.16;5041816;28;20202;-55
2022/08/01 03:54:54;;;;;;;3.55;3.00;;;;;;;18.94;90.37;96757.25;5043169;28;20196;-55
2022/08/01 03:57:22;;;;;;;3.58;3.20;;;;;;;18.95;90.55;96757.09;5042574;28;20301;-55
2022/08/01 03:59:50;;;;;;;3.25;3.05;;;;;;;18.93;91.13;96750.22;5042342;28;20217;-56
2022/08/01 04:02:22;;;;;;;3.55;3.22;;;;;;;18.98;90.01;96755.84;5041865;28;20640;-54
2022/08/01 04:04:51;;;;;;;4.30;3.40;;;;;;;18.96;89.24;96749.84;5042170;28;20199;-55
2022/08/01 04:07:24;;;;;;;3.30;3.00;;;;;;;18.91;90.67;96750.44;5041772;28;20210;-55
2022/08/01 04:09:51;;;;;;;3.55;3.25;;;;;;;18.89;89.80;96752.47;5043249;28;20238;-54
2022/08/01 04:12:18;;;;;;;3.20;3.00;;;;;;;18.98;88.46;96751.34;5041770;28;20632;-55
2022/08/01 04:14:45;;;;;;;4.00;3.58;;;;;;;18.89;90.10;96753.31;5042477;28;20235;-54
2022/08/01 04:17:12;;;;;;;3.38;3.10;;;;;;;18.90;89.33;96754.13;5041906;28;20238;-55
2022/08/01 04:19:41;;;;;;;3.75;3.33;;;;;;;18.85;89.17;96756.56;5042833;28;20290;-56
2022/08/01 04:22:09;;;;;;;3.60;3.30;;;;;;;18.81;90.12;96760.66;5046231;28;20223;-55
2022/08/01 04:24:37;;;;;;;3.45;3.15;;;;;;;18.82;90.83;96763.13;5045530;28;20208;-55
2022/08/01 04:27:09;;;;;;;3.65;3.35;;;;;;;18.86;89.61;96758.22;5045655;28;20211;-56
2022/08/01 04:29:37;;;;;;;3.70;3.40;;;;;;;18.85;90.79;96761.91;5046167;28;20203;-54
2022/08/01 04:32:04;;;;;;;3.63;3.33;;;;;;;18.83;91.66;96763.97;5045082;28;20258;-55
2022/08/01 04:34:33;;;;;;;3.10;2.92;;;;;;;18.91;90.64;96760.34;5055784;28;20234;-55
2022/08/01 04:37:01;;;;;;;3.17;2.95;;;;;;;18.91;91.01;96768.38;5069375;28;20223;-54
2022/08/01 04:39:30;;;;;;;3.50;3.30;;;;;;;18.95;90.37;96775.84;5065139;28;20231;-55
2022/08/01 04:41:58;;;;;;;3.25;3.05;;;;;;;18.91;90.68;96777.25;5045994;28;20677;-55
2022/08/01 04:44:27;;;;;;;3.25;3.05;;;;;;;18.93;91.55;96779.72;5045794;28;20199;-54
2022/08/01 04:46:54;;;;;;;3.70;3.42;;;;;;;18.94;90.36;96784.06;5045146;28;20636;-54
2022/08/01 04:49:21;;;;;;;3.30;3.10;;;;;;;18.92;91.29;96778.06;5044462;28;20246;-55
2022/08/01 04:51:57;;;;;;;3.65;3.42;;;;;;;18.95;90.62;96783.03;5044726;28;20207;-55
2022/08/01 04:54:25;;;;;;;3.45;3.20;;;;;;;18.94;92.98;96784.91;5044433;28;20214;-56
2022/08/01 04:56:53;;;;;;;3.75;3.40;;;;;;;19.02;93.13;96789.31;5044538;28;20260;-56
2022/08/01 05:02:04;;;;;;;3.50;3.30;;;;;;;19.22;91.27;96791.13;5044005;28;20210;-54
2022/08/01 05:04:31;;;;;;;5.93;5.07;;;;;;;19.24;91.48;96790.91;5044206;28;20234;-54
2022/08/01 05:06:57;;;;;;;6.07;5.57;;;;;;;19.26;92.10;96791.56;5045428;28;20299;-55
2022/08/01 05:09:26;;;;;;;4.85;4.30;;;;;;;19.23;91.46;96789.28;5044505;28;20304;-54
2022/08/01 05:11:52;;;;;;;4.20;3.80;;;;;;;19.29;91.72;96799.22;5044516;28;20222;-54
2022/08/01 05:14:19;;;;;;;4.45;3.67;;;;;;;19.32;92.86;96799.66;5043714;28;20678;-55
2022/08/01 05:16:46;;;;;;;3.30;3.10;;;;;;;19.40;91.93;96796.03;5044618;28;20204;-56
2022/08/01 05:19:13;;;;;;;3.72;3.28;;;;;;;19.59;91.24;96795.34;5044652;28;20241;-55
2022/08/01 05:21:39;;;;;;;3.70;3.40;;;;;;;19.76;90.88;96796.75;5044048;28;20239;-55
2022/08/01 05:24:06;;;;;;;3.50;3.30;;;;;;;20.15;87.65;96792.63;5044702;28;20234;-55
2022/08/01 05:26:34;;;;;;;3.90;3.60;;;;;;;20.15;88.64;96798.84;5043956;28;20289;-55
2022/08/01 05:29:01;;;;;;;3.45;3.15;;;;;;;20.19;90.38;96799.25;5043481;28;20230;-54
2022/08/01 05:31:28;;;;;;;4.65;3.60;;;;;;;20.47;86.89;96796.53;5043107;28;20797;-55
2022/08/01 05:33:55;;;;;;;3.97;3.20;;;;;;;20.52;86.13;96792.19;5044194;28;20235;-55
2022/08/01 05:36:22;;;;;;;3.70;3.40;;;;;;;20.58;87.98;96799.44;5043424;28;20591;-55
2022/08/01 05:38:48;;;;;;;3.90;3.38;;;;;;;20.67;86.97;96800.94;5044374;28;20569;-55
2022/08/01 05:41:15;;;;;;;4.28;3.60;;;;;;;20.73;85.64;96794.72;5043671;28;20285;-55
2022/08/01 05:43:43;;;;;;;3.67;3.40;;;;;;;21.02;84.33;96800.78;5044463;28;20279;-56
2022/08/01 05:46:10;;;;;;;3.45;3.25;;;;;;;21.29;82.53;96802.53;5044143;28;20315;-55
2022/08/01 05:48:36;;;;;;;3.65;3.30;;;;;;;21.43;82.52;96803.38;5042870;28;20549;-55
2022/08/01 05:51:03;;;;;;;5.00;3.50;;;;;;;21.52;81.96;96805.63;5042034;28;20307;-56
2022/08/01 05:53:30;;;;;;;3.30;3.10;;;;;;;21.86;81.97;96799.16;5043965;28;20291;-55
2022/08/01 05:55:57;;;;;;;3.47;3.28;;;;;;;22.29;79.83;96807.59;5043513;28;20334;-55
2022/08/01 05:58:23;;;;;;;3.80;3.50;;;;;;;22.63;74.50;96804.59;5044692;28;20231;-56
2022/08/01 06:00:52;;;;;;;3.17;2.97;;;;;;;22.98;71.32;96798.81;5042198;28;20208;-55
2022/08/01 06:03:19;;;;;;;3.70;3.40;;;;;;;23.30;69.41;96805.88;5043872;28;20202;-55
2022/08/01 06:05:45;;;;;;;3.53;3.22;;;;;;;23.65;66.96;96803.53;5043080;28;20208;-54
2022/08/01 06:08:12;;;;;;;3.72;3.42;;;;;;;23.87;65.68;96796.69;5043429;28;20219;-56
2022/08/01 06:10:38;;;;;;;4.90;3.05;;;;;;;23.99;61.18;96803.00;5043044;28;20218;-55
2022/08/01 06:13:05;;;;;;;3.40;3.10;;;;;;;24.36;60.99;96803.88;5043668;28;20239;-54
2022/08/01 06:15:32;;;;;;;5.15;3.30;;;;;;;24.54;59.98;96803.06;5043092;28;21134;-56
2022/08/01 06:18:00;;;;;;;3.03;2.83;;;;;;;24.88;59.81;96804.31;5042786;28;20316;-55
2022/08/01 06:20:27;;;;;;;3.35;2.90;;;;;;;24.92;60.92;96800.09;5042676;28;20287;-56
2022/08/01 06:22:54;;;;;;;3.85;3.10;;;;;;;25.02;60.50;96806.59;5043379;28;20649;-56
2022/08/01 06:25:21;;;;;;;3.22;2.92;;;;;;;25.22;58.14;96803.63;5043043;28;20270;-55
2022/08/01 06:27:47;;;;;;;2.95;2.65;;;;;;;25.40;57.12;96805.44;5042922;28;20265;-55
2022/08/01 06:30:14;;;;;;;3.40;3.10;;;;;;;25.29;56.23;96808.94;5043761;28;20752;-56
2022/08/01 06:32:41;;;;;;;3.40;3.10;;;;;;;25.44;57.41;96804.72;5043221;28;20546;-56
2022/08/01 06:35:09;;;;;;;3.20;2.92;;;;;;;25.72;55.81;96804.06;5042077;28;20241;-55
2022/08/01 06:37:36;;;;;;;4.03;3.05;;;;;;;25.90;56.59;96795.03;5043137;28;20314;-56
2022/08/01 06:40:03;;;;;;;3.13;2.92;;;;;;;25.88;55.65;96791.72;5044219;28;20294;-56
2022/08/01 06:42:31;;;;;;;3.00;2.78;;;;;;;25.92;55.91;96803.75;5044551;28;20219;-54
2022/08/01 06:45:00;;;;;;;5.68;3.10;;;;;;;26.02;53.79;96802.09;5049086;28;20966;-55
2022/08/01 06:47:27;;;;;;;3.65;2.90;;;;;;;26.05;54.78;96803.50;5046051;28;20722;-56
2022/08/01 06:49:53;;;;;;;3.10;2.80;;;;;;;26.17;52.93;96791.63;5045082;28;20597;-56
2022/08/01 06:52:21;;;;;;;2.90;2.70;;;;;;;26.05;53.39;96808.94;5043061;28;20257;-55
2022/08/01 06:54:48;;;;;;;3.33;2.90;;;;;;;26.42;51.44;96793.25;5042080;28;20294;-55
2022/08/01 06:57:15;;;;;;;3.50;3.20;;;;;;;26.70;51.06;96791.41;5042783;28;20235;-55
2022/08/01 06:59:41;;;;;;;5.13;2.85;;;;;;;27.06;50.62;96798.38;5043741;28;20222;-56
2022/08/01 07:02:08;;;;;;;3.20;2.72;;;;;;;27.26;49.86;96794.38;5043016;28;20235;-55
2022/08/01 07:04:35;;;;;;;4.85;3.10;;;;;;;26.95;52.93;96788.41;5042018;28;20219;-56
2022/08/01 07:07:02;;;;;;;3.08;2.80;;;;;;;27.16;50.04;96789.59;5041655;28;20239;-56
2022/08/01 07:09:30;;;;;;;4.15;2.92;;;;;;;27.24;51.70;96789.19;5042295;28;20289;-55
2022/08/01 07:11:56;;;;;;;3.53;2.80;;;;;;;27.27;48.06;96788.72;5042452;28;20247;-56
2022/08/01 07:14:23;;;;;;;2.65;2.42;;;;;;;27.52;48.92;96785.63;5047069;28;20223;-56
2022/08/01 07:16:50;;;;;;;2.88;2.70;;;;;;;27.66;48.12;96790.50;5045525;28;20286;-56
2022/08/01 07:19:17;;;;;;;3.20;2.90;;;;;;;27.76;48.58;96783.56;5043023;28;20231;-56
2022/08/01 07:21:44;;;;;;;2.67;2.47;;;;;;;28.12;46.61;96785.78;5044239;28;20202;-54
2022/08/01 07:24:12;;;;;;;2.90;2.55;;;;;;;28.27;45.62;96783.25;5043416;28;20245;-55
2022/08/01 07:26:41;;;;;;;2.78;2.58;;;;;;;28.35;46.04;96777.41;5042027;28;20199;-54
2022/08/01 07:29:08;;;;;;;2.60;2.35;;;;;;;28.59;47.50;96778.00;5042861;28;20310;-55
2022/08/01 07:31:34;;;;;;;3.33;2.30;;;;;;;28.47;42.89;96778.13;5042006;28;20199;-56
2022/08/01 07:34:01;;;;;;;3.10;2.90;;;;;;;28.18;44.00;96782.06;5041937;28;20211;-56
2022/08/01 07:36:27;;;;;;;3.38;2.47;;;;;;;28.27;48.72;96775.09;5042733;28;20230;-55
2022/08/01 07:38:54;;;;;;;3.45;2.50;;;;;;;28.43;44.06;96771.53;5041612;28;20299;-55
2022/08/01 07:41:21;;;;;;;2.80;2.60;;;;;;;28.51;45.90;96773.81;5042505;28;20209;-55
2022/08/01 07:43:50;;;;;;;2.90;2.70;;;;;;;28.76;45.60;96770.59;5041901;28;20334;-55
2022/08/01 07:46:17;;;;;;;5.00;2.88;;;;;;;28.72;46.02;96763.19;5044244;28;20655;-56
2022/08/01 07:48:44;;;;;;;3.75;2.80;;;;;;;28.91;43.96;96772.69;5042355;28;20246;-55
2022/08/01 07:51:11;;;;;;;3.00;2.42;;;;;;;29.02;44.20;96771.69;5042224;28;20203;-55
2022/08/01 07:53:38;;;;;;;3.80;3.00;;;;;;;29.06;45.22;96760.03;5042283;28;20291;-55
2022/08/01 07:56:05;;;;;;;3.50;3.10;;;;;;;29.38;46.07;96764.72;5045541;28;20237;-56
2022/08/01 07:58:32;;;;;;;2.80;2.60;;;;;;;29.42;45.65;96763.97;5046370;28;20203;-56
2022/08/01 08:01:00;;;;;;;2.88;2.67;;;;;;;29.75;45.24;96760.16;5046654;28;20284;-56
2022/08/01 08:03:29;;;;;;;3.22;2.95;;;;;;;29.84;44.59;96760.47;5046312;28;20291;-56
2022/08/01 08:05:56;;;;;;;3.03;2.72;;;;;;;29.57;44.74;96747.75;5044981;28;20207;-55
2022/08/01 08:08:23;;;;;;;2.70;2.50;;;;;;;29.59;44.64;96745.56;5045925;28;20293;-56
2022/08/01 08:10:50;;;;;;;4.38;2.83;;;;;;;29.77;45.89;96746.22;5045380;28;20226;-55
2022/08/01 08:13:16;;;;;;;2.80;2.60;;;;;;;29.84;45.38;96746.81;5045792;28;20283;-55
2022/08/01 08:15:43;;;;;;;2.95;2.75;;;;;;;29.88;44.03;96737.91;5045823;28;20291;-55
2022/08/01 08:18:14;;;;;;;3.40;2.90;;;;;;;29.86;43.53;96744.72;5045508;28;20320;-57
2022/08/01 08:20:42;;;;;;;3.08;2.65;;;;;;;29.74;44.96;96746.75;5045474;28;20734;-55
2022/08/01 08:25:50;;;;;;;2.70;2.38;;;;;;;30.21;42.95;96742.19;5046843;28;20285;-56
2022/08/01 08:28:16;;;;;;;3.08;2.80;;;;;;;30.28;42.88;96744.69;5044924;28;20643;-55
2022/08/01 08:30:43;;;;;;;3.00;2.80;;;;;;;30.25;40.30;96742.50;5045211;28;20318;-56
2022/08/01 08:33:11;;;;;;;2.72;2.53;;;;;;;30.51;43.58;96741.53;5044814;28;20224;-55
2022/08/01 08:35:40;;;;;;;2.63;2.53;;;;;;;30.24;42.28;96735.38;5044659;28;20285;-56
2022/08/01 08:38:06;;;;;;;2.83;2.72;;;;;;;30.54;41.68;96733.63;5044631;28;20590;-56
2022/08/01 08:40:36;;;;;;;2.70;2.50;;;;;;;30.73;42.03;96730.44;5044943;28;20279;-55
2022/08/01 08:43:07;;;;;;;3.65;2.60;;;;;;;30.94;41.85;96724.75;5045315;28;20246;-56
2022/08/01 08:45:34;;;;;;;3.13;2.50;;;;;;;31.05;41.89;96731.09;5050745;28;20226;-56
2022/08/01 08:48:01;;;;;;;3.05;2.47;;;;;;;30.88;40.45;96722.28;5059134;28;20265;-57
2022/08/01 08:50:30;;;;;;;2.92;2.70;;;;;;;31.07;38.65;96728.91;5054563;28;20418;-56
2022/08/01 08:53:01;;;;;;;2.90;2.70;;;;;;;31.03;39.98;96725.09;5045691;28;20551;-55
2022/08/01 08:55:29;;;;;;;2.83;2.63;;;;;;;31.26;38.86;96729.19;5044774;28;20204;-56
2022/08/01 08:57:56;;;;;;;3.15;2.90;;;;;;;31.31;38.49;96724.56;5044711;28;20246;-57
2022/08/01 09:00:22;;;;;;;3.08;2.80;;;;;;;30.88;38.94;96727.75;5045035;28;20206;-55
2022/08/01 09:02:49;;;;;;;2.60;2.40;;;;;;;30.91;41.76;96724.47;5044005;28;20204;-57
2022/08/01 09:05:25;;;;;;;3.10;2.80;;;;;;;30.97;39.87;96728.88;5045356;28;20219;-57
2022/08/01 09:07:53;;;;;;;2.72;2.58;;;;;;;31.24;41.85;96728.66;5044148;28;20187;-56
2022/08/01 09:10:21;;;;;;;2.85;2.60;;;;;;;30.89;39.59;96729.38;5044498;28;20625;-56
2022/08/01 09:13:10;;;;;;;2.85;2.53;;;;;;;30.88;39.11;96728.56;5045293;28;20258;-55
2022/08/01 09:15:41;;;;;;;3.38;2.67;;;;;;;31.04;41.92;96729.44;5042783;28;20206;-55
2022/08/01 09:18:08;;;;;;;3.08;2.60;;;;;;;31.20;41.14;96733.03;5043882;28;20834;-57
2022/08/01 09:20:35;;;;;;;3.10;2.88;;;;;;;30.86;40.77;96727.19;5043064;28;20544;-56
2022/08/01 09:23:04;;;;;;;3.10;2.90;;;;;;;31.02;39.91;96731.63;5044045;28;20206;-56
2022/08/01 09:25:33;;;;;;;2.33;2.22;;;;;;;31.08;42.22;96728.63;5043623;28;20230;-56
2022/08/01 09:28:05;;;;;;;2.88;2.67;;;;;;;31.02;38.63;96727.00;5044270;28;20233;-56
2022/08/01 09:30:38;;;;;;;2.42;2.30;;;;;;;30.88;40.97;96725.84;5043544;28;20226;-54
2022/08/01 09:33:05;;;;;;;2.90;2.70;;;;;;;30.63;41.79;96722.19;5044420;28;20511;-56
2022/08/01 09:35:34;;;;;;;2.90;2.70;;;;;;;31.13;40.51;96724.28;5044152;28;20200;-56
2022/08/01 09:38:19;;;;;;;3.55;2.60;;;;;;;31.02;40.88;96721.53;5043661;28;20253;-56
2022/08/01 09:40:52;;;;;;;2.70;2.60;;;;;;;30.64;40.02;96719.22;5044263;28;20195;-55
2022/08/01 09:43:19;;;;;;;4.25;3.03;;;;;;;30.64;40.53;96718.41;5043902;28;20204;-56
2022/08/01 09:45:46;;;;;;;2.70;2.50;;;;;;;30.76;40.41;96714.31;5044155;28;20207;-56
2022/08/01 09:48:12;;;;;;;2.70;2.60;;;;;;;30.85;40.27;96720.09;5043296;28;20300;-55
2022/08/01 09:50:41;;;;;;;3.40;3.20;;;;;;;30.80;40.15;96725.53;5043549;28;20862;-56
2022/08/01 09:53:08;;;;;;;2.78;2.60;;;;;;;31.13;41.43;96711.44;5044264;28;20287;-56
2022/08/01 09:55:36;;;;;;;3.33;2.67;;;;;;;31.16;39.79;96718.25;5043037;28;20218;-55
2022/08/01 09:58:04;;;;;;;3.25;3.05;;;;;;;31.45;41.44;96716.66;5043543;28;20572;-56
2022/08/01 10:00:31;;;;;;;2.25;2.15;;;;;;;31.52;38.36;96709.84;5043391;28;20508;-56
2022/08/01 10:02:58;;;;;;;2.78;2.10;;;;;;;31.93;38.31;96713.34;5042970;28;20238;-55
2022/08/01 10:05:32;;;;;;;2.90;2.53;;;;;;;32.17;36.84;96702.63;5042791;28;20290;-55
2022/08/01 10:08:00;;;;;;;2.25;2.15;;;;;;;31.84;36.52;96700.50;5042189;28;20633;-55
2022/08/01 10:10:26;;;;;;;1.98;1.88;;;;;;;31.87;36.14;96700.78;5043256;28;20224;-56
2022/08/01 10:12:56;;;;;;;2.15;2.03;;;;;;;32.27;36.46;96688.94;5043232;28;20294;-56
2022/08/01 10:15:25;;;;;;;2.20;2.10;;;;;;;32.46;35.08;96697.31;5043718;28;20299;-56
2022/08/01 10:17:54;;;;;;;2.17;2.08;;;;;;;32.52;33.66;96696.22;5042220;28;20869;-56
2022/08/01 10:20:21;;;;;;;2.80;1.90;;;;;;;32.68;34.01;96688.75;5042863;28;20210;-55
2022/08/01 10:22:48;;;;;;;1.90;1.80;;;;;;;32.95;34.79;96691.88;5043140;28;20300;-56
2022/08/01 10:25:17;;;;;;;1.90;1.77;;;;;;;32.94;33.28;96677.38;5043016;28;20604;-55
2022/08/01 10:27:45;;;;;;;1.90;1.80;;;;;;;33.01;35.12;96680.63;5043786;28;20269;-56
2022/08/01 10:30:13;;;;;;;2.10;2.00;;;;;;;32.99;34.68;96673.75;5043974;28;20230;-56
2022/08/01 10:32:42;;;;;;;2.50;2.30;;;;;;;32.69;32.96;96671.22;5043407;28;20334;-55
2022/08/01 10:35:14;;;;;;;2.38;2.17;;;;;;;32.56;34.07;96667.16;5042132;28;20195;-56
2022/08/01 10:37:44;;;;;;;2.25;2.00;;;;;;;32.40;35.72;96671.06;5043162;28;20530;-56
2022/08/01 10:40:12;;;;;;;2.38;2.17;;;;;;;32.50;34.95;96671.03;5042674;28;20191;-56
2022/08/01 10:42:40;;;;;;;2.42;2.10;;;;;;;32.76;33.39;96663.53;5043451;28;20653;-55
2022/08/01 10:45:08;;;;;;;2.00;1.90;;;;;;;32.85;33.79;96656.31;5042711;28;20199;-56
2022/08/01 10:47:41;;;;;;;2.28;2.08;;;;;;;33.08;35.13;96661.13;5043327;28;20242;-56
2022/08/01 10:50:15;;;;;;;2.22;2.13;;;;;;;33.04;33.37;96658.13;5044129;28;20253;-55
2022/08/01 10:52:41;;;;;;;2.22;2.05;;;;;;;32.76;33.12;96658.03;5044824;28;20200;-57
2022/08/01 10:55:09;;;;;;;2.63;2.25;;;;;;;32.95;34.67;96656.25;5044366;28;20658;-56
2022/08/01 10:57:43;;;;;;;2.25;2.10;;;;;;;32.97;34.78;96654.06;5042968;28;20585;-56
2022/08/01 11:00:18;;;;;;;2.45;2.35;;;;;;;33.20;35.46;96650.63;5042887;28;20207;-55
2022/08/01 11:03:00;;;;;;;2.22;2.13;;;;;;;33.29;33.10;96650.84;5043495;28;20196;-56
2022/08/01 11:05:28;;;;;;;1.95;1.85;;;;;;;33.33;33.90;96652.72;5043280;28;20204;-55
2022/08/01 11:07:55;;;;;;;2.50;2.30;;;;;;;32.87;31.93;96646.75;5043665;28;20231;-55
2022/08/01 11:10:25;;;;;;;2.28;2.17;;;;;;;32.91;34.60;96655.22;5043324;28;20220;-56
2022/08/01 11:12:52;;;;;;;2.25;2.08;;;;;;;32.68;33.71;96644.94;5042955;28;20210;-55
2022/08/01 11:15:27;;;;;;;2.13;1.80;;;;;;;32.58;34.52;96643.06;5042944;28;20306;-56
2022/08/01 11:17:56;;;;;;;2.20;2.10;;;;;;;32.37;32.37;96638.78;5043126;28;20639;-56
2022/08/01 11:20:24;;;;;;;2.15;2.05;;;;;;;32.47;32.16;96645.03;5042820;28;20196;-55
2022/08/01 11:23:18;;;;;;;2.00;1.90;;;;;;;32.40;32.50;96633.56;5043045;28;20235;-55
2022/08/01 11:26:12;;;;;;;1.90;1.80;;;;;;;32.56;31.62;96634.28;5024114;28;20215;-56
2022/08/01 11:28:40;;;;;;;1.90;1.80;;;;;;;32.43;32.29;96623.97;5033310;28;20550;-55
2022/08/01 11:31:26;;;;;;;2.50;2.05;;;;;;;32.78;34.15;96634.72;5046826;28;20658;-62
2022/08/01 11:33:54;;;;;;;1.83;1.73;;;;;;;32.82;32.53;96632.25;5044518;28;20598;-56
2022/08/01 11:36:22;;;;;;;2.25;1.90;;;;;;;32.80;33.28;96626.25;5045526;28;20298;-55
2022/08/01 11:38:50;;;;;;;2.22;2.13;;;;;;;32.67;31.45;96626.84;5049612;28;20223;-54
2022/08/01 11:41:20;;;;;;;2.95;2.75;;;;;;;32.77;32.96;96621.34;5049191;28;20192;-55
2022/08/01 11:43:57;;;;;;;2.60;2.50;;;;;;;33.01;32.50;96623.06;5044811;28;20200;-56
2022/08/01 11:46:51;;;;;;;2.22;1.98;;;;;;;33.05;33.05;96609.63;5047013;28;20333;-56